sensor_id;sensor_type;location;lat;lon;timestamp;temperature;humidity
26272;DHT22;13997;48.902;12.472;2023-11-21T00:01:54;205.00;2252.80
26272;DHT22;13997;48.902;12.472;2023-11-21T00:04:20;205.00;2252.80
26272;DHT22;13997;48.902;12.472;2023-11-21T00:06:45;205.00;2252.80
26272;DHT22;13997;48.902;12.472;2023-11-21T00:09:13;205.00;2252.80
26272;DHT22;13997;48.902;12.472;2023-11-21T00:11:41;205.00;2252.80
26272;DHT22;13997;48.902;12.472;2023-11-21T00:14:06;205.00;2252.80
26272;DHT22;13997;48.902;12.472;2023-11-21T00:16:33;205.00;2252.80
26272;DHT22;13997;48.902;12.472;2023-11-21T00:18:59;204.90;2252.80
26272;DHT22;13997;48.902;12.472;2023-11-21T00:21:25;204.90;2252.80
26272;DHT22;13997;48.902;12.472;2023-11-21T00:23:51;204.90;2252.80
26272;DHT22;13997;48.902;12.472;2023-11-21T00:26:16;204.90;2252.80
26272;DHT22;13997;48.902;12.472;2023-11-21T00:28:42;204.90;2252.80
26272;DHT22;13997;48.902;12.472;2023-11-21T00:31:08;204.90;2252.80
26272;DHT22;13997;48.902;12.472;2023-11-21T00:33:34;204.90;2252.80
26272;DHT22;13997;48.902;12.472;2023-11-21T00:35:59;204.90;2252.80
26272;DHT22;13997;48.902;12.472;2023-11-21T00:38:26;204.90;2252.80
26272;DHT22;13997;48.902;12.472;2023-11-21T00:40:52;204.90;2252.80
26272;DHT22;13997;48.902;12.472;2023-11-21T00:43:24;204.90;2252.80
26272;DHT22;13997;48.902;12.472;2023-11-21T00:45:49;204.90;2252.80
26272;DHT22;13997;48.902;12.472;2023-11-21T00:48:15;205.00;2252.80
26272;DHT22;13997;48.902;12.472;2023-11-21T00:50:41;205.00;2252.80
26272;DHT22;13997;48.902;12.472;2023-11-21T00:53:06;205.00;2252.80
26272;DHT22;13997;48.902;12.472;2023-11-21T00:55:33;205.00;2252.80
26272;DHT22;13997;48.902;12.472;2023-11-21T00:57:59;205.00;2252.80
26272;DHT22;13997;48.902;12.472;2023-11-21T01:00:25;205.00;2252.80
26272;DHT22;13997;48.902;12.472;2023-11-21T01:02:51;204.90;2252.80
26272;DHT22;13997;48.902;12.472;2023-11-21T01:05:17;204.90;2252.80
26272;DHT22;13997;48.902;12.472;2023-11-21T01:07:43;204.90;2252.80
26272;DHT22;13997;48.902;12.472;2023-11-21T01:10:09;204.90;2252.80
26272;DHT22;13997;48.902;12.472;2023-11-21T01:12:36;204.90;2252.80
26272;DHT22;13997;48.902;12.472;2023-11-21T01:15:03;204.80;2252.80
26272;DHT22;13997;48.902;12.472;2023-11-21T01:17:29;204.80;2252.80
26272;DHT22;13997;48.902;12.472;2023-11-21T01:19:55;204.80;2252.80
26272;DHT22;13997;48.902;12.472;2023-11-21T01:22:21;204.80;2252.80
26272;DHT22;13997;48.902;12.472;2023-11-21T01:24:54;204.80;2252.80
26272;DHT22;13997;48.902;12.472;2023-11-21T01:27:20;204.80;2252.80
26272;DHT22;13997;48.902;12.472;2023-11-21T01:29:46;204.80;2252.80
26272;DHT22;13997;48.902;12.472;2023-11-21T01:32:11;204.80;2252.80
26272;DHT22;13997;48.902;12.472;2023-11-21T01:34:37;204.90;2252.80
26272;DHT22;13997;48.902;12.472;2023-11-21T01:37:03;204.90;2252.80
26272;DHT22;13997;48.902;12.472;2023-11-21T01:39:30;204.90;2252.80
26272;DHT22;13997;48.902;12.472;2023-11-21T01:41:57;204.90;2252.80
26272;DHT22;13997;48.902;12.472;2023-11-21T01:44:26;204.90;2252.80
26272;DHT22;13997;48.902;12.472;2023-11-21T01:46:52;204.90;2252.80
26272;DHT22;13997;48.902;12.472;2023-11-21T01:49:19;204.90;2252.80
26272;DHT22;13997;48.902;12.472;2023-11-21T01:51:48;204.80;2252.80
26272;DHT22;13997;48.902;12.472;2023-11-21T01:54:16;204.80;2252.80
26272;DHT22;13997;48.902;12.472;2023-11-21T01:56:44;204.80;2252.80
26272;DHT22;13997;48.902;12.472;2023-11-21T01:59:12;204.80;2252.80
26272;DHT22;13997;48.902;12.472;2023-11-21T02:01:39;180.10;2252.80
26272;DHT22;13997;48.902;12.472;2023-11-21T02:04:06;180.10;2252.80
26272;DHT22;13997;48.902;12.472;2023-11-21T02:06:33;204.80;2252.80
26272;DHT22;13997;48.902;12.472;2023-11-21T02:08:59;204.80;2252.80
26272;DHT22;13997;48.902;12.472;2023-11-21T02:11:25;204.80;2252.80
26272;DHT22;13997;48.902;12.472;2023-11-21T02:13:53;204.80;2252.80
26272;DHT22;13997;48.902;12.472;2023-11-21T02:16:19;204.80;2252.80
26272;DHT22;13997;48.902;12.472;2023-11-21T02:18:47;204.80;2252.80
26272;DHT22;13997;48.902;12.472;2023-11-21T02:21:14;204.80;2252.80
26272;DHT22;13997;48.902;12.472;2023-11-21T02:23:39;204.80;2252.80
26272;DHT22;13997;48.902;12.472;2023-11-21T02:26:10;204.80;2252.80
26272;DHT22;13997;48.902;12.472;2023-11-21T02:28:36;204.90;2252.80
26272;DHT22;13997;48.902;12.472;2023-11-21T02:31:02;204.90;2252.80
26272;DHT22;13997;48.902;12.472;2023-11-21T02:33:30;204.90;2252.80
26272;DHT22;13997;48.902;12.472;2023-11-21T02:36:02;204.80;2252.80
26272;DHT22;13997;48.902;12.472;2023-11-21T02:38:28;204.80;2252.80
26272;DHT22;13997;48.902;12.472;2023-11-21T02:40:53;204.80;2252.80
26272;DHT22;13997;48.902;12.472;2023-11-21T02:43:19;204.80;2252.80
26272;DHT22;13997;48.902;12.472;2023-11-21T02:45:45;204.80;2252.80
26272;DHT22;13997;48.902;12.472;2023-11-21T02:48:10;180.10;2252.80
26272;DHT22;13997;48.902;12.472;2023-11-21T02:50:36;180.10;2252.80
26272;DHT22;13997;48.902;12.472;2023-11-21T02:53:03;180.10;2252.80
26272;DHT22;13997;48.902;12.472;2023-11-21T02:55:31;180.10;2252.80
26272;DHT22;13997;48.902;12.472;2023-11-21T02:58:00;180.10;2252.80
26272;DHT22;13997;48.902;12.472;2023-11-21T03:00:26;180.10;2252.80
26272;DHT22;13997;48.902;12.472;2023-11-21T03:02:53;180.10;2252.80
26272;DHT22;13997;48.902;12.472;2023-11-21T03:05:18;180.10;2252.80
26272;DHT22;13997;48.902;12.472;2023-11-21T03:07:44;180.10;2252.80
26272;DHT22;13997;48.902;12.472;2023-11-21T03:10:10;204.80;2252.80
26272;DHT22;13997;48.902;12.472;2023-11-21T03:12:39;204.80;2252.80
26272;DHT22;13997;48.902;12.472;2023-11-21T03:15:06;204.80;2252.80
26272;DHT22;13997;48.902;12.472;2023-11-21T03:17:32;204.80;2252.80
26272;DHT22;13997;48.902;12.472;2023-11-21T03:19:59;204.80;2252.80
26272;DHT22;13997;48.902;12.472;2023-11-21T03:22:25;180.10;2252.80
26272;DHT22;13997;48.902;12.472;2023-11-21T03:24:50;180.10;2252.80
26272;DHT22;13997;48.902;12.472;2023-11-21T03:27:16;180.10;2252.80
26272;DHT22;13997;48.902;12.472;2023-11-21T03:29:41;180.10;2252.80
26272;DHT22;13997;48.902;12.472;2023-11-21T03:32:07;180.10;2252.80
26272;DHT22;13997;48.902;12.472;2023-11-21T03:34:33;180.10;2252.80
26272;DHT22;13997;48.902;12.472;2023-11-21T03:36:58;180.10;2252.80
26272;DHT22;13997;48.902;12.472;2023-11-21T03:39:24;180.10;2252.80
26272;DHT22;13997;48.902;12.472;2023-11-21T03:41:51;180.10;2252.80
26272;DHT22;13997;48.902;12.472;2023-11-21T03:44:17;180.10;2252.80
26272;DHT22;13997;48.902;12.472;2023-11-21T03:46:43;204.80;2252.80
26272;DHT22;13997;48.902;12.472;2023-11-21T03:49:09;204.80;2252.80
26272;DHT22;13997;48.902;12.472;2023-11-21T03:51:36;204.80;2252.80
26272;DHT22;13997;48.902;12.472;2023-11-21T03:54:02;204.80;2252.80
26272;DHT22;13997;48.902;12.472;2023-11-21T03:56:28;204.80;2252.80
26272;DHT22;13997;48.902;12.472;2023-11-21T03:58:54;180.10;2252.80
26272;DHT22;13997;48.902;12.472;2023-11-21T04:01:24;180.10;2252.80
26272;DHT22;13997;48.902;12.472;2023-11-21T04:03:50;180.10;2252.80
26272;DHT22;13997;48.902;12.472;2023-11-21T04:06:17;180.10;2252.80
26272;DHT22;13997;48.902;12.472;2023-11-21T04:08:43;180.10;2252.80
26272;DHT22;13997;48.902;12.472;2023-11-21T04:11:10;204.80;2252.80
26272;DHT22;13997;48.902;12.472;2023-11-21T04:13:38;204.80;2252.80
26272;DHT22;13997;48.902;12.472;2023-11-21T04:16:05;204.80;2252.80
26272;DHT22;13997;48.902;12.472;2023-11-21T04:18:31;204.80;2252.80
26272;DHT22;13997;48.902;12.472;2023-11-21T04:20:56;180.10;2252.80
26272;DHT22;13997;48.902;12.472;2023-11-21T04:23:22;180.10;2252.80
26272;DHT22;13997;48.902;12.472;2023-11-21T04:25:48;180.10;2252.80
26272;DHT22;13997;48.902;12.472;2023-11-21T04:28:13;180.10;2252.80
26272;DHT22;13997;48.902;12.472;2023-11-21T04:30:39;180.10;2252.80
26272;DHT22;13997;48.902;12.472;2023-11-21T04:33:05;180.10;2252.80
26272;DHT22;13997;48.902;12.472;2023-11-21T04:35:30;180.10;2252.80
26272;DHT22;13997;48.902;12.472;2023-11-21T04:37:56;180.10;2252.80
26272;DHT22;13997;48.902;12.472;2023-11-21T04:40:22;180.00;2252.80
26272;DHT22;13997;48.902;12.472;2023-11-21T04:42:48;180.00;2252.80
26272;DHT22;13997;48.902;12.472;2023-11-21T04:45:14;180.00;2252.80
26272;DHT22;13997;48.902;12.472;2023-11-21T04:47:39;180.00;2252.80
26272;DHT22;13997;48.902;12.472;2023-11-21T04:50:05;180.00;2252.80
26272;DHT22;13997;48.902;12.472;2023-11-21T05:19:28;180.10;2252.80
26272;DHT22;13997;48.902;12.472;2023-11-21T05:21:54;180.10;2252.80
26272;DHT22;13997;48.902;12.472;2023-11-21T05:24:20;180.10;2252.80
26272;DHT22;13997;48.902;12.472;2023-11-21T05:26:45;180.10;2252.80
26272;DHT22;13997;48.902;12.472;2023-11-21T05:29:11;180.00;2252.80
26272;DHT22;13997;48.902;12.472;2023-11-21T05:31:37;180.10;2252.80
26272;DHT22;13997;48.902;12.472;2023-11-21T05:34:03;180.00;2252.80
26272;DHT22;13997;48.902;12.472;2023-11-21T05:36:30;180.00;2252.80
26272;DHT22;13997;48.902;12.472;2023-11-21T05:38:56;180.00;2252.80
26272;DHT22;13997;48.902;12.472;2023-11-21T05:41:21;180.00;2252.80
26272;DHT22;13997;48.902;12.472;2023-11-21T05:43:47;180.00;2252.80
26272;DHT22;13997;48.902;12.472;2023-11-21T05:46:13;180.00;2252.80
26272;DHT22;13997;48.902;12.472;2023-11-21T05:48:39;180.00;2252.80
26272;DHT22;13997;48.902;12.472;2023-11-21T05:51:07;180.00;2252.80
26272;DHT22;13997;48.902;12.472;2023-11-21T05:53:33;180.00;2252.80
26272;DHT22;13997;48.902;12.472;2023-11-21T05:55:59;180.00;2252.80
26272;DHT22;13997;48.902;12.472;2023-11-21T05:58:25;180.10;2252.80
26272;DHT22;13997;48.902;12.472;2023-11-21T06:00:51;180.10;2252.80
26272;DHT22;13997;48.902;12.472;2023-11-21T06:03:16;180.10;2252.80
26272;DHT22;13997;48.902;12.472;2023-11-21T06:05:42;180.10;2252.80
26272;DHT22;13997;48.902;12.472;2023-11-21T06:08:09;180.00;2252.80
26272;DHT22;13997;48.902;12.472;2023-11-21T06:10:36;180.00;2252.80
26272;DHT22;13997;48.902;12.472;2023-11-21T06:13:01;180.00;2252.80
26272;DHT22;13997;48.902;12.472;2023-11-21T06:15:29;180.00;2252.80
26272;DHT22;13997;48.902;12.472;2023-11-21T06:17:54;180.00;2252.80
26272;DHT22;13997;48.902;12.472;2023-11-21T06:20:21;180.00;2252.80
26272;DHT22;13997;48.902;12.472;2023-11-21T06:22:49;180.00;2252.80
26272;DHT22;13997;48.902;12.472;2023-11-21T06:25:15;180.00;2252.80
26272;DHT22;13997;48.902;12.472;2023-11-21T06:27:45;180.00;2252.80
26272;DHT22;13997;48.902;12.472;2023-11-21T06:30:12;180.00;2252.80
26272;DHT22;13997;48.902;12.472;2023-11-21T06:32:39;180.00;2252.80
26272;DHT22;13997;48.902;12.472;2023-11-21T06:35:08;180.00;2252.80
26272;DHT22;13997;48.902;12.472;2023-11-21T06:37:36;180.00;2252.80
26272;DHT22;13997;48.902;12.472;2023-11-21T06:40:02;180.00;2252.80
26272;DHT22;13997;48.902;12.472;2023-11-21T06:42:33;180.00;2252.80
26272;DHT22;13997;48.902;12.472;2023-11-21T06:44:59;180.00;2252.80
26272;DHT22;13997;48.902;12.472;2023-11-21T06:47:25;180.00;2252.80
26272;DHT22;13997;48.902;12.472;2023-11-21T06:49:53;180.10;2252.80
26272;DHT22;13997;48.902;12.472;2023-11-21T06:52:19;180.10;2252.80
26272;DHT22;13997;48.902;12.472;2023-11-21T06:54:45;180.10;2252.80
26272;DHT22;13997;48.902;12.472;2023-11-21T06:57:12;180.10;2252.80
26272;DHT22;13997;48.902;12.472;2023-11-21T06:59:38;180.10;2252.80
26272;DHT22;13997;48.902;12.472;2023-11-21T07:02:04;180.10;2252.80
26272;DHT22;13997;48.902;12.472;2023-11-21T07:04:32;180.00;2252.80
26272;DHT22;13997;48.902;12.472;2023-11-21T07:06:58;180.00;2252.80
26272;DHT22;13997;48.902;12.472;2023-11-21T07:09:24;180.10;2252.80
26272;DHT22;13997;48.902;12.472;2023-11-21T07:11:51;180.10;2252.80
26272;DHT22;13997;48.902;12.472;2023-11-21T07:14:17;180.10;2252.80
26272;DHT22;13997;48.902;12.472;2023-11-21T07:16:45;180.10;2252.80
26272;DHT22;13997;48.902;12.472;2023-11-21T07:19:11;180.10;2252.80
26272;DHT22;13997;48.902;12.472;2023-11-21T07:21:38;180.10;2252.80
26272;DHT22;13997;48.902;12.472;2023-11-21T07:24:05;204.80;2252.80
26272;DHT22;13997;48.902;12.472;2023-11-21T07:26:35;204.80;2252.80
26272;DHT22;13997;48.902;12.472;2023-11-21T07:29:01;204.80;2252.80
26272;DHT22;13997;48.902;12.472;2023-11-21T07:31:28;204.90;2252.80
26272;DHT22;13997;48.902;12.472;2023-11-21T07:33:54;204.90;2252.80
26272;DHT22;13997;48.902;12.472;2023-11-21T07:36:23;204.90;2252.80
26272;DHT22;13997;48.902;12.472;2023-11-21T07:38:49;204.90;2252.80
26272;DHT22;13997;48.902;12.472;2023-11-21T07:41:15;204.90;2252.80
26272;DHT22;13997;48.902;12.472;2023-11-21T07:43:42;204.90;2252.80
26272;DHT22;13997;48.902;12.472;2023-11-21T07:46:08;204.90;2252.80
26272;DHT22;13997;48.902;12.472;2023-11-21T07:48:34;204.90;2252.80
26272;DHT22;13997;48.902;12.472;2023-11-21T07:51:01;204.90;2252.80
26272;DHT22;13997;48.902;12.472;2023-11-21T07:53:27;204.90;2252.80
26272;DHT22;13997;48.902;12.472;2023-11-21T07:55:55;204.90;2252.80
26272;DHT22;13997;48.902;12.472;2023-11-21T07:58:21;205.00;2252.80
26272;DHT22;13997;48.902;12.472;2023-11-21T08:00:47;205.00;2252.80
26272;DHT22;13997;48.902;12.472;2023-11-21T08:03:13;205.00;2252.80
26272;DHT22;13997;48.902;12.472;2023-11-21T08:05:39;205.00;2252.80
26272;DHT22;13997;48.902;12.472;2023-11-21T08:08:05;205.00;2252.80
26272;DHT22;13997;48.902;12.472;2023-11-21T08:10:31;205.00;2252.80
26272;DHT22;13997;48.902;12.472;2023-11-21T08:12:57;205.00;2252.80
26272;DHT22;13997;48.902;12.472;2023-11-21T08:15:23;205.00;2252.80
26272;DHT22;13997;48.902;12.472;2023-11-21T08:17:49;205.10;2252.80
26272;DHT22;13997;48.902;12.472;2023-11-21T08:20:15;205.10;2252.80
26272;DHT22;13997;48.902;12.472;2023-11-21T08:22:42;205.10;2252.80
26272;DHT22;13997;48.902;12.472;2023-11-21T08:25:08;205.10;2252.80
26272;DHT22;13997;48.902;12.472;2023-11-21T08:27:34;205.20;2252.80
26272;DHT22;13997;48.902;12.472;2023-11-21T08:30:03;205.20;2252.80
26272;DHT22;13997;48.902;12.472;2023-11-21T08:32:29;205.20;2252.80
26272;DHT22;13997;48.902;12.472;2023-11-21T08:34:59;205.20;2252.80
26272;DHT22;13997;48.902;12.472;2023-11-21T08:37:24;205.20;2252.80
26272;DHT22;13997;48.902;12.472;2023-11-21T08:39:52;205.20;2252.80
26272;DHT22;13997;48.902;12.472;2023-11-21T08:42:19;205.20;2252.80
26272;DHT22;13997;48.902;12.472;2023-11-21T08:44:45;205.30;2252.80
26272;DHT22;13997;48.902;12.472;2023-11-21T08:47:11;205.30;2252.80
26272;DHT22;13997;48.902;12.472;2023-11-21T08:49:36;205.40;2252.80
26272;DHT22;13997;48.902;12.472;2023-11-21T08:52:03;205.50;2252.80
26272;DHT22;13997;48.902;12.472;2023-11-21T08:54:30;205.50;2252.80
26272;DHT22;13997;48.902;12.472;2023-11-21T08:56:56;205.60;2252.80
26272;DHT22;13997;48.902;12.472;2023-11-21T08:59:26;205.60;2252.80
26272;DHT22;13997;48.902;12.472;2023-11-21T09:01:52;205.70;2252.80
26272;DHT22;13997;48.902;12.472;2023-11-21T09:04:17;205.70;2252.80
26272;DHT22;13997;48.902;12.472;2023-11-21T09:06:43;205.70;2252.80
26272;DHT22;13997;48.902;12.472;2023-11-21T09:09:09;205.70;2252.80
26272;DHT22;13997;48.902;12.472;2023-11-21T09:11:36;205.70;2252.80
26272;DHT22;13997;48.902;12.472;2023-11-21T09:14:02;230.40;2252.80
26272;DHT22;13997;48.902;12.472;2023-11-21T09:16:28;230.40;2252.80
26272;DHT22;13997;48.902;12.472;2023-11-21T09:18:54;230.40;2252.80
26272;DHT22;13997;48.902;12.472;2023-11-21T09:21:20;230.40;2252.80
26272;DHT22;13997;48.902;12.472;2023-11-21T09:23:46;230.50;2252.80
26272;DHT22;13997;48.902;12.472;2023-11-21T09:26:11;230.50;2252.80
26272;DHT22;13997;48.902;12.472;2023-11-21T09:28:37;230.50;2252.80
26272;DHT22;13997;48.902;12.472;2023-11-21T09:31:04;230.50;2252.80
26272;DHT22;13997;48.902;12.472;2023-11-21T09:33:34;230.50;2252.80
26272;DHT22;13997;48.902;12.472;2023-11-21T09:36:00;230.50;2252.80
26272;DHT22;13997;48.902;12.472;2023-11-21T09:38:26;230.50;2252.80
26272;DHT22;13997;48.902;12.472;2023-11-21T09:40:54;230.50;2252.80
26272;DHT22;13997;48.902;12.472;2023-11-21T09:43:20;230.50;2252.80
26272;DHT22;13997;48.902;12.472;2023-11-21T09:45:53;230.50;2252.80
26272;DHT22;13997;48.902;12.472;2023-11-21T09:48:20;230.50;2252.80
26272;DHT22;13997;48.902;12.472;2023-11-21T09:50:48;230.50;2252.80
26272;DHT22;13997;48.902;12.472;2023-11-21T09:53:22;230.50;2252.80
26272;DHT22;13997;48.902;12.472;2023-11-21T09:55:51;230.50;2252.80
26272;DHT22;13997;48.902;12.472;2023-11-21T09:58:18;230.50;2252.80
26272;DHT22;13997;48.902;12.472;2023-11-21T10:00:48;230.50;2252.80
26272;DHT22;13997;48.902;12.472;2023-11-21T10:03:15;230.50;2252.80
26272;DHT22;13997;48.902;12.472;2023-11-21T10:05:43;230.50;2252.80
26272;DHT22;13997;48.902;12.472;2023-11-21T10:08:11;230.50;2252.80
26272;DHT22;13997;48.902;12.472;2023-11-21T10:10:45;230.50;2252.80
26272;DHT22;13997;48.902;12.472;2023-11-21T10:13:13;230.50;2252.80
26272;DHT22;13997;48.902;12.472;2023-11-21T10:15:42;230.50;2252.80
26272;DHT22;13997;48.902;12.472;2023-11-21T10:18:14;230.50;2252.80
26272;DHT22;13997;48.902;12.472;2023-11-21T10:20:41;230.50;2252.80
26272;DHT22;13997;48.902;12.472;2023-11-21T10:23:08;230.50;2252.80
26272;DHT22;13997;48.902;12.472;2023-11-21T10:25:37;230.50;2252.80
26272;DHT22;13997;48.902;12.472;2023-11-21T10:28:03;230.50;2252.80
26272;DHT22;13997;48.902;12.472;2023-11-21T10:30:36;230.50;2252.80
26272;DHT22;13997;48.902;12.472;2023-11-21T10:33:03;230.50;2252.80
26272;DHT22;13997;48.902;12.472;2023-11-21T10:38:07;230.60;2252.80
26272;DHT22;13997;48.902;12.472;2023-11-21T10:40:39;230.70;2252.80
26272;DHT22;13997;48.902;12.472;2023-11-21T10:43:08;230.80;2252.80
26272;DHT22;13997;48.902;12.472;2023-11-21T10:45:35;230.70;2252.80
26272;DHT22;13997;48.902;12.472;2023-11-21T10:48:05;230.70;2252.80
26272;DHT22;13997;48.902;12.472;2023-11-21T10:50:33;230.60;2252.80
26272;DHT22;13997;48.902;12.472;2023-11-21T10:53:01;230.50;2252.80
26272;DHT22;13997;48.902;12.472;2023-11-21T10:55:27;230.60;2252.80
26272;DHT22;13997;48.902;12.472;2023-11-21T10:57:54;230.70;2252.80
26272;DHT22;13997;48.902;12.472;2023-11-21T11:00:21;230.80;2252.80
26272;DHT22;13997;48.902;12.472;2023-11-21T11:02:52;230.80;2252.80
26272;DHT22;13997;48.902;12.472;2023-11-21T11:05:21;230.90;2252.80
26272;DHT22;13997;48.902;12.472;2023-11-21T11:08:08;231.00;2252.80
26272;DHT22;13997;48.902;12.472;2023-11-21T11:10:35;231.10;2252.80
26272;DHT22;13997;48.902;12.472;2023-11-21T11:13:02;231.10;2252.80
26272;DHT22;13997;48.902;12.472;2023-11-21T11:15:28;231.20;2252.80
26272;DHT22;13997;48.902;12.472;2023-11-21T11:17:54;231.20;2252.80
26272;DHT22;13997;48.902;12.472;2023-11-21T11:20:25;231.30;2252.80
26272;DHT22;13997;48.902;12.472;2023-11-21T11:28:38;231.30;2252.80
26272;DHT22;13997;48.902;12.472;2023-11-21T11:34:01;231.30;2252.80
26272;DHT22;13997;48.902;12.472;2023-11-21T11:37:01;256.00;2252.80
26272;DHT22;13997;48.902;12.472;2023-11-21T11:39:38;256.00;2252.80
26272;DHT22;13997;48.902;12.472;2023-11-21T11:42:08;256.00;2252.80
26272;DHT22;13997;48.902;12.472;2023-11-21T11:47:37;256.00;2252.80
26272;DHT22;13997;48.902;12.472;2023-11-21T11:50:09;256.00;2252.80
26272;DHT22;13997;48.902;12.472;2023-11-21T11:52:46;256.10;2252.80
26272;DHT22;13997;48.902;12.472;2023-11-21T11:55:14;256.10;2252.80
26272;DHT22;13997;48.902;12.472;2023-11-21T11:57:44;256.10;2252.80
26272;DHT22;13997;48.902;12.472;2023-11-21T12:02:40;256.20;2252.80
26272;DHT22;13997;48.902;12.472;2023-11-21T12:05:13;256.20;2252.80
26272;DHT22;13997;48.902;12.472;2023-11-21T12:07:47;256.30;2252.80
26272;DHT22;13997;48.902;12.472;2023-11-21T12:10:17;256.30;2252.80
26272;DHT22;13997;48.902;12.472;2023-11-21T12:12:45;256.30;2252.80
26272;DHT22;13997;48.902;12.472;2023-11-21T12:15:11;256.20;2252.80
26272;DHT22;13997;48.902;12.472;2023-11-21T12:17:38;256.20;2252.80
26272;DHT22;13997;48.902;12.472;2023-11-21T12:20:05;256.20;2252.80
26272;DHT22;13997;48.902;12.472;2023-11-21T12:22:43;256.10;2252.80
26272;DHT22;13997;48.902;12.472;2023-11-21T12:25:08;256.20;2252.80
26272;DHT22;13997;48.902;12.472;2023-11-21T12:27:34;256.20;2252.80
26272;DHT22;13997;48.902;12.472;2023-11-21T12:30:00;256.10;2252.80
26272;DHT22;13997;48.902;12.472;2023-11-21T12:32:26;256.10;2252.80
26272;DHT22;13997;48.902;12.472;2023-11-21T12:34:52;256.20;2252.80
26272;DHT22;13997;48.902;12.472;2023-11-21T12:37:18;256.30;2252.80
26272;DHT22;13997;48.902;12.472;2023-11-21T12:39:43;256.30;2252.80
26272;DHT22;13997;48.902;12.472;2023-11-21T12:42:09;256.30;2252.80
26272;DHT22;13997;48.902;12.472;2023-11-21T12:44:35;256.30;2252.80
26272;DHT22;13997;48.902;12.472;2023-11-21T12:47:03;256.40;2252.80
26272;DHT22;13997;48.902;12.472;2023-11-21T12:49:28;256.40;2252.80
26272;DHT22;13997;48.902;12.472;2023-11-21T12:51:54;256.40;2252.80
26272;DHT22;13997;48.902;12.472;2023-11-21T12:54:20;256.30;2252.80
26272;DHT22;13997;48.902;12.472;2023-11-21T12:56:46;256.30;2252.80
26272;DHT22;13997;48.902;12.472;2023-11-21T12:59:14;256.20;2252.80
26272;DHT22;13997;48.902;12.472;2023-11-21T13:01:44;256.30;2252.80
26272;DHT22;13997;48.902;12.472;2023-11-21T13:04:11;256.40;2252.80
26272;DHT22;13997;48.902;12.472;2023-11-21T13:06:37;256.40;2252.80
26272;DHT22;13997;48.902;12.472;2023-11-21T13:09:07;256.40;2252.80
26272;DHT22;13997;48.902;12.472;2023-11-21T13:11:36;256.30;2252.80
26272;DHT22;13997;48.902;12.472;2023-11-21T13:14:02;256.30;2252.80
26272;DHT22;13997;48.902;12.472;2023-11-21T13:16:29;256.30;2252.80
26272;DHT22;13997;48.902;12.472;2023-11-21T13:18:55;256.30;2252.80
26272;DHT22;13997;48.902;12.472;2023-11-21T13:21:21;256.30;2252.80
26272;DHT22;13997;48.902;12.472;2023-11-21T13:23:47;256.20;2252.80
26272;DHT22;13997;48.902;12.472;2023-11-21T13:26:16;256.20;2252.80
26272;DHT22;13997;48.902;12.472;2023-11-21T13:28:41;256.10;2252.80
26272;DHT22;13997;48.902;12.472;2023-11-21T13:31:11;256.10;2252.80
26272;DHT22;13997;48.902;12.472;2023-11-21T13:33:48;256.10;2252.80
26272;DHT22;13997;48.902;12.472;2023-11-21T13:36:24;256.10;2252.80
26272;DHT22;13997;48.902;12.472;2023-11-21T13:38:51;256.10;2252.80
26272;DHT22;13997;48.902;12.472;2023-11-21T13:41:18;256.10;2252.80
26272;DHT22;13997;48.902;12.472;2023-11-21T13:43:44;256.00;2252.80
26272;DHT22;13997;48.902;12.472;2023-11-21T13:46:19;256.00;2252.80
26272;DHT22;13997;48.902;12.472;2023-11-21T13:48:48;231.30;2252.80
26272;DHT22;13997;48.902;12.472;2023-11-21T13:51:24;231.30;2252.80
26272;DHT22;13997;48.902;12.472;2023-11-21T13:54:09;231.30;2252.80
26272;DHT22;13997;48.902;12.472;2023-11-21T13:56:36;231.20;2252.80
26272;DHT22;13997;48.902;12.472;2023-11-21T13:59:02;231.20;2252.80
26272;DHT22;13997;48.902;12.472;2023-11-21T14:05:20;231.30;2252.80
26272;DHT22;13997;48.902;12.472;2023-11-21T14:07:55;231.20;2252.80
26272;DHT22;13997;48.902;12.472;2023-11-21T14:10:22;231.20;2252.80
26272;DHT22;13997;48.902;12.472;2023-11-21T14:12:50;231.30;2252.80
26272;DHT22;13997;48.902;12.472;2023-11-21T14:15:15;231.30;2252.80
26272;DHT22;13997;48.902;12.472;2023-11-21T14:17:44;231.30;2252.80
26272;DHT22;13997;48.902;12.472;2023-11-21T14:20:10;231.30;2252.80
26272;DHT22;13997;48.902;12.472;2023-11-21T14:22:41;231.30;2252.80
26272;DHT22;13997;48.902;12.472;2023-11-21T14:25:07;231.30;2252.80
26272;DHT22;13997;48.902;12.472;2023-11-21T14:27:33;231.30;2252.80
26272;DHT22;13997;48.902;12.472;2023-11-21T14:29:58;231.30;2252.80
26272;DHT22;13997;48.902;12.472;2023-11-21T14:32:25;231.30;2252.80
26272;DHT22;13997;48.902;12.472;2023-11-21T14:34:51;231.20;2252.80
26272;DHT22;13997;48.902;12.472;2023-11-21T14:37:17;231.10;2252.80
26272;DHT22;13997;48.902;12.472;2023-11-21T14:39:43;231.00;2252.80
26272;DHT22;13997;48.902;12.472;2023-11-21T14:42:15;231.00;2252.80
26272;DHT22;13997;48.902;12.472;2023-11-21T14:44:41;231.00;2252.80
26272;DHT22;13997;48.902;12.472;2023-11-21T14:47:08;231.00;2252.80
26272;DHT22;13997;48.902;12.472;2023-11-21T14:49:43;231.00;2252.80
26272;DHT22;13997;48.902;12.472;2023-11-21T14:52:18;231.00;2252.80
26272;DHT22;13997;48.902;12.472;2023-11-21T14:54:53;230.90;2252.80
26272;DHT22;13997;48.902;12.472;2023-11-21T14:57:39;230.90;2252.80
26272;DHT22;13997;48.902;12.472;2023-11-21T15:00:06;230.90;2252.80
26272;DHT22;13997;48.902;12.472;2023-11-21T15:02:48;230.90;2252.80
26272;DHT22;13997;48.902;12.472;2023-11-21T15:05:16;230.90;2252.80
26272;DHT22;13997;48.902;12.472;2023-11-21T15:07:43;230.80;2252.80
26272;DHT22;13997;48.902;12.472;2023-11-21T15:10:10;230.80;2252.80
26272;DHT22;13997;48.902;12.472;2023-11-21T15:12:40;230.80;2252.80
26272;DHT22;13997;48.902;12.472;2023-11-21T15:15:06;230.80;2252.80
26272;DHT22;13997;48.902;12.472;2023-11-21T15:17:35;230.80;2252.80
26272;DHT22;13997;48.902;12.472;2023-11-21T15:20:02;230.80;2252.80
26272;DHT22;13997;48.902;12.472;2023-11-21T15:22:28;230.80;2252.80
26272;DHT22;13997;48.902;12.472;2023-11-21T15:24:54;230.80;2252.80